Time;durP1;ratioP1;P1;durP2;ratioP2;P2;SDS_P1;SDS_P2;PMS_P1;PMS_P2;Temp;Humidity;BMP_temperature;BMP_pressure;BME280_temperature;BME280_humidity;BME280_pressure;Samples;Min_cycle;Max_cycle;Signal;HPM_P1;HPM_P2
2023/03/13 00:01:32;;;;;;;11.33;2.60;;;;;;;8.73;95.45;100204.88;5093214;28;20039;-85
2023/03/13 00:03:57;;;;;;;9.75;2.63;;;;;;;8.71;94.70;100198.88;5094095;28;20028;-85
2023/03/13 00:06:25;;;;;;;7.03;2.50;;;;;;;8.67;96.10;100191.19;5093627;28;20031;-85
2023/03/13 00:08:50;;;;;;;9.63;2.80;;;;;;;8.66;96.05;100182.59;5093173;28;20024;-85
2023/03/13 00:11:15;;;;;;;9.47;2.50;;;;;;;8.68;95.77;100180.81;5094160;28;20103;-84
2023/03/13 00:13:42;;;;;;;13.57;3.00;;;;;;;8.67;97.32;100173.09;5093229;28;20024;-85
2023/03/13 00:16:14;;;;;;;;;;;;;;;8.61;98.60;100172.31;5094574;28;20035;-85
2023/03/13 00:18:48;;;;;;;13.65;3.17;;;;;;;8.58;97.54;100159.44;5094532;28;19965;-85
2023/03/13 00:21:14;;;;;;;15.25;3.65;;;;;;;8.62;97.72;100152.47;5094050;28;20012;-86
2023/03/13 00:23:40;;;;;;;13.20;2.95;;;;;;;8.56;98.10;100155.16;5093977;28;20089;-85
2023/03/13 00:26:08;;;;;;;11.83;3.13;;;;;;;8.59;99.28;100144.75;5093675;28;20448;-85
2023/03/13 00:28:35;;;;;;;15.13;3.60;;;;;;;8.54;99.85;100134.50;5092985;28;20043;-85
2023/03/13 00:31:08;;;;;;;11.77;3.17;;;;;;;8.50;99.78;100131.13;5093786;28;20031;-85
2023/03/13 00:33:35;;;;;;;12.73;3.25;;;;;;;8.48;100.00;100134.63;5090589;28;20100;-84
2023/03/13 00:36:04;;;;;;;11.30;2.83;;;;;;;8.44;100.00;100120.88;5093372;28;20028;-85
2023/03/13 00:38:29;;;;;;;14.77;3.30;;;;;;;8.47;100.00;100117.38;5093648;28;20028;-85
2023/03/13 00:41:03;;;;;;;14.67;3.30;;;;;;;8.44;100.00;100109.66;5092634;28;20073;-85
2023/03/13 00:43:28;;;;;;;13.00;2.83;;;;;;;8.45;100.00;100101.03;5094128;28;20058;-86
2023/03/13 00:45:54;;;;;;;12.63;2.93;;;;;;;8.36;100.00;100099.44;5093455;28;20452;-85
2023/03/13 00:48:19;;;;;;;13.10;2.80;;;;;;;8.34;100.00;100094.31;5093021;28;20020;-85
2023/03/13 00:50:47;;;;;;;16.83;3.37;;;;;;;8.35;100.00;100082.22;5093262;28;20027;-85
2023/03/13 00:53:12;;;;;;;9.80;3.13;;;;;;;8.33;100.00;100084.84;5093954;28;20419;-86
2023/03/13 00:55:38;;;;;;;10.27;2.67;;;;;;;8.27;100.00;100072.06;5092512;28;20059;-86
2023/03/13 00:58:03;;;;;;;10.33;2.87;;;;;;;8.34;100.00;100062.44;5093062;28;20083;-85
2023/03/13 01:00:28;;;;;;;12.77;3.00;;;;;;;8.33;100.00;100066.75;5093124;28;20032;-85
2023/03/13 01:02:54;;;;;;;9.15;3.08;;;;;;;8.30;100.00;100065.97;5092118;28;20090;-85
2023/03/13 01:05:25;;;;;;;11.35;3.33;;;;;;;8.29;100.00;100061.69;5093611;28;20028;-86
2023/03/13 01:07:50;;;;;;;11.48;2.85;;;;;;;8.36;100.00;100060.66;5092953;28;20027;-85
2023/03/13 01:10:15;;;;;;;13.30;3.67;;;;;;;8.43;100.00;100046.75;5092446;28;20024;-85
2023/03/13 01:12:41;;;;;;;15.68;3.80;;;;;;;8.42;100.00;100036.44;5093582;28;20090;-85
2023/03/13 01:15:06;;;;;;;13.98;3.17;;;;;;;8.37;100.00;100028.75;5092562;28;20177;-85
2023/03/13 01:17:32;;;;;;;10.03;3.37;;;;;;;8.29;100.00;100025.47;5092357;28;20028;-85
2023/03/13 01:19:57;;;;;;;9.68;3.00;;;;;;;8.37;100.00;100021.00;5091928;28;20047;-85
2023/03/13 01:22:22;;;;;;;12.10;3.33;;;;;;;8.41;100.00;100022.66;5092991;28;20111;-86
2023/03/13 01:24:51;;;;;;;13.37;3.50;;;;;;;8.41;100.00;100019.22;5092046;28;20024;-85
2023/03/13 01:27:16;;;;;;;11.13;3.50;;;;;;;8.45;100.00;99995.00;5093421;28;20035;-85
2023/03/13 01:29:42;;;;;;;11.77;3.60;;;;;;;8.59;100.00;99985.28;5092094;28;20052;-84
2023/03/13 01:32:08;;;;;;;12.27;3.60;;;;;;;8.54;100.00;99981.91;5092666;28;20023;-85
2023/03/13 01:34:33;;;;;;;12.93;3.53;;;;;;;8.54;100.00;99984.50;5093067;28;20024;-86
2023/03/13 01:36:59;;;;;;;14.00;4.00;;;;;;;8.55;100.00;99999.13;5092292;28;20396;-85
2023/03/13 01:39:24;;;;;;;8.50;3.07;;;;;;;8.54;100.00;99986.25;5092716;28;20365;-86
2023/03/13 01:41:49;;;;;;;9.83;3.60;;;;;;;8.53;100.00;99977.63;5092839;28;20028;-85
2023/03/13 01:44:24;;;;;;;7.57;3.00;;;;;;;8.65;100.00;99973.94;5092554;28;20464;-86
2023/03/13 01:46:52;;;;;;;10.57;3.30;;;;;;;8.66;100.00;99960.13;5092641;28;20058;-85
2023/03/13 01:49:22;;;;;;;9.23;3.10;;;;;;;8.69;100.00;99964.38;5092823;28;20433;-86
2023/03/13 01:52:02;;;;;;;10.05;3.10;;;;;;;8.79;100.00;99943.44;5091527;28;20050;-85
2023/03/13 01:54:53;;;;;;;10.30;3.50;;;;;;;8.85;100.00;99936.44;5092779;28;20058;-86
2023/03/13 01:57:40;;;;;;;8.82;3.00;;;;;;;8.84;100.00;99937.31;5092849;28;20052;-86
2023/03/13 02:00:15;;;;;;;9.25;3.38;;;;;;;8.87;100.00;99926.91;5092023;28;20112;-86
2023/03/13 02:02:47;;;;;;;9.68;3.38;;;;;;;8.89;100.00;99917.38;5093059;28;20024;-86
2023/03/13 02:05:14;;;;;;;8.48;3.10;;;;;;;8.96;100.00;99908.56;5092346;28;20090;-86
2023/03/13 02:07:44;;;;;;;7.78;2.65;;;;;;;8.95;100.00;99906.88;5092878;28;20048;-86
2023/03/13 02:10:12;;;;;;;8.13;2.50;;;;;;;8.98;100.00;99893.84;5092783;28;20035;-87
2023/03/13 02:12:39;;;;;;;6.38;2.45;;;;;;;9.09;100.00;99891.00;5092100;28;20060;-86
2023/03/13 02:15:12;;;;;;;6.70;2.70;;;;;;;9.04;100.00;99896.28;5092489;28;20051;-86
2023/03/13 02:17:40;;;;;;;5.60;2.60;;;;;;;9.17;100.00;99875.28;5093156;28;20380;-86
2023/03/13 02:20:06;;;;;;;7.75;3.15;;;;;;;9.18;100.00;99871.81;5091552;28;20581;-86
2023/03/13 02:22:44;;;;;;;7.60;3.08;;;;;;;9.20;100.00;99881.22;5092253;28;20456;-86
2023/03/13 02:25:24;;;;;;;7.90;2.90;;;;;;;9.21;100.00;99845.84;5092703;28;20028;-86
2023/03/13 02:27:51;;;;;;;7.38;2.67;;;;;;;9.23;100.00;99838.91;5092682;28;20066;-86
2023/03/13 02:30:16;;;;;;;6.30;2.53;;;;;;;9.20;100.00;99831.19;5092989;28;20448;-86
2023/03/13 02:32:44;;;;;;;7.83;2.90;;;;;;;9.25;100.00;99839.69;5096787;28;20050;-86
2023/03/13 02:35:15;;;;;;;7.35;2.60;;;;;;;9.28;100.00;99831.84;5095803;28;20035;-86
2023/03/13 02:37:43;;;;;;;8.40;2.92;;;;;;;9.33;100.00;99831.72;5096003;28;20476;-86
2023/03/13 02:40:11;;;;;;;6.32;2.97;;;;;;;9.38;100.00;99830.72;5095480;28;20031;-86
2023/03/13 02:42:39;;;;;;;7.78;3.28;;;;;;;9.41;100.00;99838.41;5096318;28;20097;-86
2023/03/13 02:45:05;;;;;;;6.65;3.00;;;;;;;9.38;100.00;99835.03;5095536;28;20085;-86
2023/03/13 02:47:31;;;;;;;8.13;3.07;;;;;;;9.42;100.00;99826.28;5095579;28;20032;-86
2023/03/13 02:49:56;;;;;;;7.03;3.20;;;;;;;9.46;100.00;99834.84;5095420;28;20068;-85
2023/03/13 02:52:36;;;;;;;5.23;3.00;;;;;;;9.46;100.00;99838.28;5095774;28;20043;-86
2023/03/13 02:55:07;;;;;;;4.78;2.83;;;;;;;9.46;100.00;99832.25;5094808;28;20457;-86
2023/03/13 02:57:34;;;;;;;5.30;2.85;;;;;;;9.48;100.00;99833.03;5095606;28;20051;-86
2023/03/13 02:59:59;;;;;;;7.63;3.15;;;;;;;9.50;100.00;99839.91;5095705;28;20020;-85
2023/03/13 03:02:24;;;;;;;5.57;3.10;;;;;;;9.52;100.00;99837.25;5094460;28;20039;-86
2023/03/13 03:04:50;;;;;;;7.23;3.03;;;;;;;9.52;100.00;99834.66;5095370;28;20020;-86
2023/03/13 03:07:15;;;;;;;5.80;2.90;;;;;;;9.57;100.00;99838.84;5095614;28;20157;-86
2023/03/13 03:09:40;;;;;;;6.57;3.17;;;;;;;9.59;100.00;99825.81;5094803;28;20055;-85
2023/03/13 03:12:06;;;;;;;6.53;3.30;;;;;;;9.65;100.00;99836.03;5095488;28;20166;-86
2023/03/13 03:14:31;;;;;;;7.17;3.40;;;;;;;9.65;100.00;99841.22;5094786;28;20119;-85
2023/03/13 03:16:57;;;;;;;5.70;3.00;;;;;;;9.68;100.00;99820.38;5094130;28;20024;-86
2023/03/13 03:19:22;;;;;;;7.73;3.50;;;;;;;9.71;100.00;99830.69;5095311;28;20020;-86
2023/03/13 03:21:48;;;;;;;8.10;3.43;;;;;;;9.72;100.00;99837.56;5095374;28;20035;-85
2023/03/13 03:24:14;;;;;;;7.23;3.20;;;;;;;9.76;100.00;99822.78;5094664;28;20464;-86
2023/03/13 03:26:39;;;;;;;8.37;3.43;;;;;;;9.81;100.00;99820.03;5095129;28;20020;-86
2023/03/13 03:29:04;;;;;;;6.23;3.80;;;;;;;9.93;100.00;99831.81;5094564;28;20098;-86
2023/03/13 03:31:30;;;;;;;4.83;3.40;;;;;;;9.85;100.00;99812.13;5094071;28;20024;-86
2023/03/13 03:33:56;;;;;;;10.40;3.63;;;;;;;9.96;100.00;99821.38;5094571;28;20020;-85
2023/03/13 03:36:22;;;;;;;6.60;3.57;;;;;;;9.94;100.00;99808.44;5094719;28;20032;-85
2023/03/13 03:38:47;;;;;;;5.90;3.30;;;;;;;9.95;100.00;99810.13;5094656;28;20089;-86
2023/03/13 03:41:13;;;;;;;7.03;3.00;;;;;;;9.95;100.00;99804.13;5094867;28;20016;-86
2023/03/13 03:43:39;;;;;;;5.17;3.27;;;;;;;9.99;100.00;99818.66;5093464;28;20131;-86
2023/03/13 03:46:05;;;;;;;6.68;3.47;;;;;;;9.98;100.00;99804.88;5094148;28;20028;-86
2023/03/13 03:48:31;;;;;;;6.07;3.77;;;;;;;10.00;100.00;99808.28;5094739;28;20028;-85
2023/03/13 03:50:57;;;;;;;6.23;3.60;;;;;;;10.07;100.00;99810.66;5093725;28;20115;-85
2023/03/13 03:53:22;;;;;;;5.17;3.43;;;;;;;10.01;100.00;99820.34;5094735;28;20109;-87
2023/03/13 03:55:48;;;;;;;4.30;3.23;;;;;;;10.03;100.00;99810.75;5094322;28;20032;-85
2023/03/13 03:58:13;;;;;;;5.13;3.50;;;;;;;10.07;100.00;99813.25;5093914;28;20027;-86
2023/03/13 04:00:43;;;;;;;6.53;3.37;;;;;;;10.08;100.00;99814.97;5094594;28;20020;-86
2023/03/13 04:03:08;;;;;;;6.47;3.50;;;;;;;10.07;100.00;99811.53;5074154;28;20097;-86
2023/03/13 04:05:33;;;;;;;6.97;3.77;;;;;;;10.11;100.00;99810.53;5073518;28;20457;-86
2023/03/13 04:07:59;;;;;;;6.73;3.43;;;;;;;10.14;100.00;99809.56;5073704;28;20025;-86
2023/03/13 04:10:24;;;;;;;5.87;3.67;;;;;;;10.16;100.00;99800.00;5074226;28;20206;-86
2023/03/13 04:12:50;;;;;;;7.97;4.10;;;;;;;10.18;100.00;99798.22;5072795;28;20075;-86
2023/03/13 04:15:15;;;;;;;7.33;3.50;;;;;;;10.19;100.00;99797.34;5074026;28;20078;-86
2023/03/13 04:17:40;;;;;;;6.03;3.73;;;;;;;10.20;100.00;99799.03;5073911;28;20062;-86
2023/03/13 04:20:06;;;;;;;4.47;3.30;;;;;;;10.22;100.00;99801.56;5073020;28;20469;-86
2023/03/13 04:22:32;;;;;;;6.38;3.30;;;;;;;10.25;100.00;99785.94;5082026;28;20043;-85
2023/03/13 04:24:58;;;;;;;6.40;3.20;;;;;;;10.24;100.00;99766.94;5093628;28;20055;-86
2023/03/13 04:27:24;;;;;;;6.68;4.10;;;;;;;10.26;100.00;99772.91;5093334;28;20087;-86
2023/03/13 04:29:49;;;;;;;6.23;3.67;;;;;;;10.28;100.00;99760.75;5093698;28;20116;-85
2023/03/13 04:32:14;;;;;;;7.53;3.87;;;;;;;10.32;100.00;99766.69;5093652;28;20107;-85
2023/03/13 04:34:39;;;;;;;7.30;4.30;;;;;;;10.40;100.00;99754.38;5093416;28;20361;-85
2023/03/13 04:37:05;;;;;;;6.43;3.73;;;;;;;10.41;100.00;99753.47;5093237;28;20111;-86
2023/03/13 04:39:30;;;;;;;7.07;4.33;;;;;;;10.52;100.00;99753.09;5093536;28;20468;-85
2023/03/13 04:41:55;;;;;;;8.40;3.90;;;;;;;10.53;100.00;99741.84;5092296;28;20024;-85
2023/03/13 04:44:21;;;;;;;5.40;3.60;;;;;;;10.54;100.00;99753.91;5093879;28;20016;-85
2023/03/13 04:46:47;;;;;;;8.03;3.60;;;;;;;10.55;100.00;99740.03;5092007;28;20028;-85
2023/03/13 04:49:14;;;;;;;5.70;3.50;;;;;;;10.57;100.00;99738.25;5093785;28;20020;-85
2023/03/13 04:51:41;;;;;;;7.13;3.50;;;;;;;10.57;100.00;99727.88;5093751;28;20281;-85
2023/03/13 04:54:06;;;;;;;6.63;3.60;;;;;;;10.62;100.00;99733.75;5092452;28;20035;-85
2023/03/13 04:56:31;;;;;;;5.33;3.50;;;;;;;10.63;100.00;99734.59;5093155;28;20130;-85
2023/03/13 04:58:57;;;;;;;5.23;3.30;;;;;;;10.65;100.00;99735.38;5093033;28;20376;-85
2023/03/13 05:01:22;;;;;;;4.73;3.10;;;;;;;10.68;100.00;99727.50;5092486;28;20016;-86
2023/03/13 05:03:47;;;;;;;6.17;3.23;;;;;;;10.73;100.00;99729.94;5092996;28;20024;-84
2023/03/13 05:06:13;;;;;;;6.83;3.40;;;;;;;10.76;100.00;99735.88;5093405;28;20028;-85
2023/03/13 05:08:38;;;;;;;5.70;3.60;;;;;;;10.78;100.00;99720.25;5092594;28;20020;-85
2023/03/13 05:11:04;;;;;;;5.43;3.27;;;;;;;10.80;100.00;99708.09;5093057;28;20182;-85
2023/03/13 05:13:30;;;;;;;6.80;3.40;;;;;;;10.87;100.00;99716.47;5093112;28;20518;-85
2023/03/13 05:15:55;;;;;;;5.20;3.10;;;;;;;10.83;100.00;99710.56;5092151;28;20016;-84
2023/03/13 05:18:20;;;;;;;4.90;2.90;;;;;;;10.86;100.00;99717.41;5093012;28;20482;-86
2023/03/13 05:20:46;;;;;;;5.63;3.13;;;;;;;10.88;100.00;99719.03;5092660;28;20109;-84
2023/03/13 05:23:11;;;;;;;6.87;3.40;;;;;;;10.93;100.00;99708.50;5092350;28;20024;-85
2023/03/13 05:25:36;;;;;;;6.40;3.43;;;;;;;11.01;100.00;99706.47;5093122;28;20032;-85
2023/03/13 05:28:02;;;;;;;5.50;3.17;;;;;;;11.00;100.00;99698.75;5092751;28;20081;-85
2023/03/13 05:30:27;;;;;;;5.13;3.10;;;;;;;11.01;100.00;99695.25;5092013;28;20441;-85
2023/03/13 05:32:53;;;;;;;8.20;3.13;;;;;;;11.03;100.00;99691.69;5092606;28;20020;-86
2023/03/13 05:35:18;;;;;;;7.07;3.50;;;;;;;11.07;100.00;99708.88;5092671;28;20108;-85
2023/03/13 05:37:44;;;;;;;6.83;3.10;;;;;;;11.11;100.00;99701.81;5092151;28;20028;-83
2023/03/13 05:40:13;;;;;;;7.18;3.40;;;;;;;11.11;100.00;99675.84;5093155;28;20020;-85
2023/03/13 05:42:39;;;;;;;5.80;3.30;;;;;;;11.20;100.00;99698.88;5093064;28;20073;-86
2023/03/13 05:45:05;;;;;;;8.03;3.30;;;;;;;11.16;100.00;99707.66;5091676;28;20032;-86
2023/03/13 05:47:30;;;;;;;7.22;3.40;;;;;;;11.26;100.00;99706.44;5093045;28;20027;-85
2023/03/13 05:49:56;;;;;;;7.73;3.30;;;;;;;11.44;100.00;99691.94;5091644;28;20040;-83
2023/03/13 05:52:21;;;;;;;9.03;3.30;;;;;;;11.23;100.00;99703.97;5092779;28;20051;-85
2023/03/13 05:54:47;;;;;;;4.03;2.87;;;;;;;11.21;100.00;99703.16;5092224;28;20031;-85
2023/03/13 05:57:12;;;;;;;6.10;3.00;;;;;;;11.21;100.00;99700.56;5091790;28;20036;-85
2023/03/13 05:59:37;;;;;;;7.40;3.67;;;;;;;11.15;100.00;99689.56;5092480;28;20020;-85
2023/03/13 06:02:03;;;;;;;5.73;3.10;;;;;;;11.19;100.00;99704.97;5092457;28;20016;-85
2023/03/13 06:04:28;;;;;;;8.93;3.50;;;;;;;11.20;100.00;99685.91;5092070;28;20487;-84
2023/03/13 06:06:53;;;;;;;8.20;3.23;;;;;;;11.26;100.00;99711.63;5095556;28;20090;-85
2023/03/13 06:09:19;;;;;;;8.33;3.13;;;;;;;11.29;100.00;99702.91;5096241;28;20028;-84
2023/03/13 06:11:44;;;;;;;6.33;3.10;;;;;;;11.30;100.00;99712.38;5095511;28;20035;-84
2023/03/13 06:14:10;;;;;;;9.67;3.60;;;;;;;11.36;100.00;99706.13;5096350;28;20032;-84
2023/03/13 06:16:35;;;;;;;5.93;3.33;;;;;;;11.38;100.00;99709.47;5095960;28;20028;-85
2023/03/13 06:19:01;;;;;;;6.77;2.90;;;;;;;11.38;100.00;99694.75;5074922;28;20158;-85
2023/03/13 06:21:26;;;;;;;6.77;2.90;;;;;;;11.39;100.00;99705.97;5076017;28;20086;-85
2023/03/13 06:23:54;;;;;;;7.03;3.23;;;;;;;11.39;100.00;99686.06;5075774;28;20024;-87
2023/03/13 06:26:19;;;;;;;5.90;2.90;;;;;;;11.40;100.00;99685.16;5075031;28;20537;-87
2023/03/13 06:28:44;;;;;;;4.87;2.90;;;;;;;11.43;100.00;99686.78;5075814;28;20048;-84
2023/03/13 06:31:10;;;;;;;4.97;2.80;;;;;;;11.39;100.00;99680.88;5075769;28;20460;-94
2023/03/13 06:33:36;;;;;;;4.57;2.70;;;;;;;11.37;100.00;99682.69;5075669;28;20468;-86
2023/03/13 06:36:02;;;;;;;6.27;2.93;;;;;;;11.38;100.00;99688.69;5075863;28;20032;-86
2023/03/13 06:38:28;;;;;;;7.93;2.87;;;;;;;11.39;100.00;99678.28;5076240;28;20763;-87
2023/03/13 06:40:53;;;;;;;4.22;2.60;;;;;;;11.38;100.00;99684.38;5075307;28;20033;-87
2023/03/13 06:43:19;;;;;;;7.60;3.07;;;;;;;11.44;100.00;99686.72;5086252;28;20103;-87
2023/03/13 06:45:45;;;;;;;8.77;3.10;;;;;;;11.44;100.00;99691.09;5095852;28;20069;-87
2023/03/13 06:48:10;;;;;;;8.53;3.20;;;;;;;11.49;100.00;99698.72;5096266;28;20282;-88
2023/03/13 06:50:39;;;;;;;8.83;3.50;;;;;;;11.52;100.00;99693.41;5096588;28;20024;-86
2023/03/13 06:53:04;;;;;;;9.60;2.90;;;;;;;11.52;100.00;99703.81;5095914;28;20074;-87
2023/03/13 06:55:29;;;;;;;8.30;3.20;;;;;;;11.55;100.00;99690.66;5095353;28;20103;-86
2023/03/13 06:57:55;;;;;;;6.43;3.00;;;;;;;11.56;100.00;99685.44;5095599;28;20387;-86
2023/03/13 07:00:21;;;;;;;6.93;3.00;;;;;;;11.58;100.00;99683.63;5095263;28;20529;-88
2023/03/13 07:02:46;;;;;;;8.50;3.07;;;;;;;11.58;100.00;99686.22;5095451;28;20039;-87
2023/03/13 07:05:14;;;;;;;5.37;2.90;;;;;;;11.61;100.00;99694.78;5096087;28;20020;-86
2023/03/13 07:07:42;;;;;;;10.95;3.40;;;;;;;11.62;100.00;99688.69;5094939;28;20048;-86
2023/03/13 07:10:11;;;;;;;6.65;2.90;;;;;;;11.62;100.00;99671.38;5095101;28;20044;-87
2023/03/13 07:12:37;;;;;;;5.30;2.70;;;;;;;11.64;100.00;99687.75;5095225;28;20111;-84
2023/03/13 07:15:04;;;;;;;6.73;3.23;;;;;;;11.72;100.00;99677.03;5094480;28;20115;-86
2023/03/13 07:17:29;;;;;;;6.75;2.80;;;;;;;11.67;100.00;99678.97;5095724;28;20023;-86
2023/03/13 07:19:55;;;;;;;8.00;2.83;;;;;;;11.66;100.00;99674.69;5095019;28;20016;-86
2023/03/13 07:22:20;;;;;;;6.23;2.83;;;;;;;11.70;100.00;99671.91;5095326;28;20074;-87
2023/03/13 07:24:45;;;;;;;8.63;3.00;;;;;;;11.72;100.00;99667.50;5095838;28;20030;-80
2023/03/13 07:27:10;;;;;;;6.87;3.00;;;;;;;11.75;100.00;99671.72;5095523;28;20035;-87
2023/03/13 07:29:36;;;;;;;6.07;3.07;;;;;;;11.83;100.00;99663.63;5095924;28;20376;-88
2023/03/13 07:32:01;;;;;;;7.07;3.00;;;;;;;11.83;100.00;99672.25;5095284;28;20111;-87
2023/03/13 07:34:27;;;;;;;6.93;2.70;;;;;;;11.85;100.00;99680.03;5095147;28;20027;-86
2023/03/13 07:36:52;;;;;;;8.47;3.00;;;;;;;11.86;100.00;99674.75;5094007;28;20023;-86
2023/03/13 07:39:17;;;;;;;6.73;2.50;;;;;;;11.83;100.00;99676.63;5094463;28;20028;-85
2023/03/13 07:41:43;;;;;;;7.07;3.00;;;;;;;12.06;99.88;99683.53;5094608;28;20024;-85
2023/03/13 07:44:08;;;;;;;5.57;2.60;;;;;;;11.98;100.00;99681.25;5093724;28;20106;-85
2023/03/13 07:46:33;;;;;;;6.47;2.80;;;;;;;11.99;100.00;99685.53;5094828;28;20153;-85
2023/03/13 07:48:58;;;;;;;9.67;2.73;;;;;;;11.97;99.95;99682.13;5094361;28;20459;-85
2023/03/13 07:51:25;;;;;;;6.23;2.67;;;;;;;11.98;100.00;99689.06;5094816;28;20024;-88
2023/03/13 07:53:51;;;;;;;6.75;2.83;;;;;;;11.98;99.74;99683.00;5095243;28;20117;-88
2023/03/13 07:56:19;;;;;;;7.10;2.80;;;;;;;11.95;100.00;99699.53;5095008;28;20127;-88
2023/03/13 07:58:45;;;;;;;6.38;2.75;;;;;;;11.97;100.00;99694.28;5094608;28;20032;-88
2023/03/13 08:01:13;;;;;;;7.57;2.70;;;;;;;11.93;100.00;99680.56;5095766;28;20028;-88
2023/03/13 08:03:39;;;;;;;7.45;2.85;;;;;;;11.94;100.00;99678.78;5094442;28;20495;-88
2023/03/13 08:06:09;;;;;;;6.30;2.73;;;;;;;11.88;100.00;99672.06;5095343;28;20103;-89
2023/03/13 08:08:36;;;;;;;7.85;2.85;;;;;;;12.04;100.00;99673.22;5095692;28;20039;-89
2023/03/13 08:11:13;;;;;;;7.75;2.88;;;;;;;12.16;100.00;99676.22;5094140;28;20020;-88
2023/03/13 08:13:40;;;;;;;4.80;2.85;;;;;;;12.26;100.00;99661.09;5095912;28;20391;-89
2023/03/13 08:16:17;;;;;;;7.18;2.75;;;;;;;12.31;99.57;99657.41;5094252;28;20024;-88
2023/03/13 08:18:45;;;;;;;8.63;2.75;;;;;;;12.43;98.61;99668.19;5093894;28;20026;-89
2023/03/13 08:21:26;;;;;;;5.38;2.60;;;;;;;12.40;98.44;99648.34;5094487;28;20464;-88
2023/03/13 08:23:56;;;;;;;6.10;3.05;;;;;;;12.43;98.18;99649.97;5094544;28;20032;-87
2023/03/13 08:26:36;;;;;;;6.07;2.80;;;;;;;12.40;97.80;99648.34;5090302;28;20032;-88
2023/03/13 08:29:09;;;;;;;6.90;2.90;;;;;;;12.49;97.01;99666.19;5093818;28;20028;-87
2023/03/13 08:31:51;;;;;;;8.55;3.20;;;;;;;12.42;97.31;99649.13;5094531;28;20016;-88
2023/03/13 08:34:17;;;;;;;7.85;2.90;;;;;;;12.48;97.39;99654.09;5094588;28;20537;-88
2023/03/13 08:36:43;;;;;;;6.95;2.80;;;;;;;12.48;96.71;99654.09;5094819;28;20032;-88
2023/03/13 08:39:23;;;;;;;5.33;2.63;;;;;;;12.43;97.11;99652.59;5093180;28;20048;-87
2023/03/13 08:41:48;;;;;;;7.13;2.63;;;;;;;12.45;96.41;99648.13;5094090;28;20043;-88
2023/03/13 08:44:16;;;;;;;7.37;2.87;;;;;;;12.50;95.60;99657.44;5094098;28;20399;-87
2023/03/13 08:46:42;;;;;;;6.63;2.50;;;;;;;12.54;95.05;99650.38;5093417;28;20016;-88
2023/03/13 08:49:08;;;;;;;5.50;2.40;;;;;;;12.57;95.04;99650.22;5094178;28;20111;-87
2023/03/13 08:51:34;;;;;;;5.55;2.72;;;;;;;12.57;94.83;99642.41;5096476;28;20024;-88
2023/03/13 08:54:01;;;;;;;5.53;2.30;;;;;;;12.61;95.17;99632.75;5096114;28;20460;-87
2023/03/13 08:56:29;;;;;;;6.45;2.47;;;;;;;12.67;94.75;99653.28;5094005;28;20036;-88
2023/03/13 08:58:56;;;;;;;5.65;2.65;;;;;;;12.70;93.26;99642.75;5093510;28;20028;-88
2023/03/13 09:01:24;;;;;;;6.28;2.47;;;;;;;12.74;94.74;99649.50;5092836;28;20016;-87
2023/03/13 09:03:50;;;;;;;4.72;2.50;;;;;;;12.82;93.67;99651.78;5093260;28;20024;-87
2023/03/13 09:06:16;;;;;;;3.88;2.20;;;;;;;12.89;93.34;99647.97;5093530;28;20020;-87
2023/03/13 09:08:44;;;;;;;6.23;2.37;;;;;;;13.00;93.64;99646.69;5092989;28;20028;-87
2023/03/13 09:11:12;;;;;;;5.47;2.20;;;;;;;13.17;93.02;99635.50;5093365;28;20774;-88
2023/03/13 09:13:41;;;;;;;5.57;2.33;;;;;;;13.18;90.98;99634.56;5093657;28;20488;-88
2023/03/13 09:16:15;;;;;;;6.22;2.50;;;;;;;13.25;90.80;99644.63;5093000;28;20024;-88
2023/03/13 09:18:41;;;;;;;6.82;2.50;;;;;;;13.20;91.65;99627.53;5093493;28;20027;-88
2023/03/13 09:21:10;;;;;;;3.25;2.13;;;;;;;13.17;91.74;99622.47;5092770;28;20024;-87
2023/03/13 09:23:36;;;;;;;4.90;2.50;;;;;;;13.27;92.63;99623.75;5093619;28;20418;-88
2023/03/13 09:26:01;;;;;;;3.80;2.20;;;;;;;13.42;93.59;99620.44;5092976;28;20103;-87
2023/03/13 09:28:26;;;;;;;4.83;2.40;;;;;;;13.61;91.90;99616.13;5092685;28;20495;-87
2023/03/13 09:30:53;;;;;;;5.93;2.30;;;;;;;13.85;91.81;99616.69;5093145;28;20119;-88
2023/03/13 09:33:19;;;;;;;5.07;2.80;;;;;;;14.04;89.17;99612.28;5093370;28;20028;-87
2023/03/13 09:35:49;;;;;;;5.45;2.50;;;;;;;14.12;90.78;99604.09;5092277;28;20472;-87
2023/03/13 09:38:19;;;;;;;6.20;2.92;;;;;;;14.24;89.63;99589.56;5093110;28;20080;-87
2023/03/13 09:40:50;;;;;;;7.35;2.75;;;;;;;14.37;89.18;99584.56;5094800;28;20111;-87
2023/03/13 09:43:30;;;;;;;5.45;2.45;;;;;;;14.51;87.57;99578.66;5097207;28;20028;-87
2023/03/13 09:46:00;;;;;;;6.60;2.70;;;;;;;14.60;87.87;99577.28;5093527;28;20159;-87
2023/03/13 09:48:31;;;;;;;5.32;2.33;;;;;;;14.67;86.02;99584.78;5097416;28;20061;-87
2023/03/13 09:51:02;;;;;;;4.25;2.30;;;;;;;14.77;87.65;99572.09;5096070;28;20035;-79
2023/03/13 09:53:40;;;;;;;3.80;2.25;;;;;;;14.86;86.49;99564.66;5097542;28;20109;-84
2023/03/13 09:56:15;;;;;;;5.10;2.40;;;;;;;14.90;84.45;99571.44;5095531;28;20383;-83
2023/03/13 09:58:48;;;;;;;3.50;2.30;;;;;;;14.79;83.31;99569.38;5096798;28;20025;-83
2023/03/13 10:01:19;;;;;;;5.50;2.38;;;;;;;14.67;85.01;99566.50;5096606;28;20024;-83
2023/03/13 10:04:03;;;;;;;4.57;2.10;;;;;;;14.59;84.07;99552.97;5095648;28;20041;-84
2023/03/13 10:06:34;;;;;;;3.80;2.10;;;;;;;14.60;85.21;99578.16;5096757;28;20028;-84
2023/03/13 10:09:00;;;;;;;5.13;2.20;;;;;;;14.59;84.23;99586.06;5096048;28;20566;-84
2023/03/13 10:11:46;;;;;;;5.00;2.20;;;;;;;14.66;83.86;99551.72;5095519;28;20101;-83
2023/03/13 10:14:26;;;;;;;4.85;2.25;;;;;;;14.87;82.15;99541.06;5096283;28;20103;-83
2023/03/13 10:17:13;;;;;;;3.65;2.08;;;;;;;15.02;81.27;99555.09;5096231;28;20059;-83
2023/03/13 10:19:43;;;;;;;3.58;2.15;;;;;;;15.01;80.65;99553.41;5096296;28;20036;-83
2023/03/13 10:22:17;;;;;;;2.85;2.05;;;;;;;15.03;81.53;99553.31;5095718;28;20107;-83
2023/03/13 10:24:54;;;;;;;3.78;2.10;;;;;;;15.13;77.69;99537.06;5091333;28;20024;-84
2023/03/13 10:27:19;;;;;;;4.65;2.13;;;;;;;15.08;80.76;99540.84;5095270;28;20115;-83
2023/03/13 10:29:44;;;;;;;2.83;1.90;;;;;;;15.08;79.70;99543.47;5095611;28;20122;-83
2023/03/13 10:32:13;;;;;;;2.80;2.10;;;;;;;15.08;80.51;99541.69;5094998;28;20026;-83
2023/03/13 10:34:59;;;;;;;4.07;1.92;;;;;;;15.09;80.23;99540.75;5095642;28;20028;-83
2023/03/13 10:37:38;;;;;;;3.05;2.17;;;;;;;15.13;80.24;99528.34;5096156;28;20081;-83
2023/03/13 10:40:12;;;;;;;2.88;1.92;;;;;;;15.09;78.14;99537.28;5094262;28;20028;-83
2023/03/13 10:42:44;;;;;;;3.35;1.88;;;;;;;15.11;79.93;99528.47;5083033;28;20062;-83
2023/03/13 10:45:15;;;;;;;2.35;1.90;;;;;;;14.98;77.92;99517.81;5073966;28;20033;-85
2023/03/13 10:47:40;;;;;;;3.67;1.92;;;;;;;15.06;77.74;99509.56;5073445;28;20044;-83
2023/03/13 10:50:05;;;;;;;3.07;1.80;;;;;;;15.10;78.72;99508.47;5073428;28;20028;-82
2023/03/13 10:52:33;;;;;;;1.80;1.70;;;;;;;15.09;78.94;99506.78;5072268;28;20021;-83
2023/03/13 10:55:04;;;;;;;3.25;2.03;;;;;;;15.14;78.51;99515.19;5072229;28;20028;-83
2023/03/13 10:57:36;;;;;;;3.13;1.90;;;;;;;15.14;78.74;99528.25;5073532;28;20109;-83
2023/03/13 11:00:35;;;;;;;2.15;1.83;;;;;;;15.14;79.16;99522.22;5073585;28;20028;-83
2023/03/13 11:03:04;;;;;;;2.97;1.90;;;;;;;15.12;79.25;99508.38;5089395;28;20031;-84
2023/03/13 11:05:49;;;;;;;3.15;1.98;;;;;;;15.17;79.71;99498.53;5095565;28;20044;-83
2023/03/13 11:08:15;;;;;;;3.03;1.98;;;;;;;15.24;79.03;99505.09;5080241;28;20480;-83
2023/03/13 11:10:57;;;;;;;4.43;2.20;;;;;;;15.36;78.14;99516.63;5095230;28;20032;-84
2023/03/13 11:13:42;;;;;;;3.58;1.90;;;;;;;15.36;77.62;99497.47;5095368;28;20458;-83
2023/03/13 11:16:20;;;;;;;3.17;1.77;;;;;;;15.54;75.50;99513.88;5095055;28;20102;-83
2023/03/13 11:19:27;;;;;;;3.80;1.90;;;;;;;15.46;74.98;99493.41;5095067;28;20051;-83
2023/03/13 11:21:58;;;;;;;2.70;1.80;;;;;;;15.44;74.92;99484.81;5094170;28;20058;-83
2023/03/13 11:24:55;;;;;;;2.28;1.70;;;;;;;15.61;75.80;99494.28;5095128;28;20024;-83
2023/03/13 11:27:41;;;;;;;2.03;1.83;;;;;;;15.79;76.94;99475.84;5095204;28;20116;-82
2023/03/13 11:30:14;;;;;;;;;;;;;;;16.12;74.49;99467.78;5094949;28;20054;-83
2023/03/13 11:32:44;;;;;;;4.68;1.95;;;;;;;16.52;69.74;99474.97;5094842;28;19995;-83
2023/03/13 11:35:31;;;;;;;3.58;1.80;;;;;;;16.68;67.89;99467.00;5093999;28;20024;-83